Time;durP1;ratioP1;P1;durP2;ratioP2;P2;SDS_P1;SDS_P2;PMS_P1;PMS_P2;Temp;Humidity;BMP_temperature;BMP_pressure;BME280_temperature;BME280_humidity;BME280_pressure;Samples;Min_cycle;Max_cycle;Signal;HPM_P1;HPM_P2
2022/06/08 00:00:54;;;;;;;12.60;5.47;;;23.50;99.90;;;;;;5000665;23;20555;-48
2022/06/08 00:03:26;;;;;;;14.60;6.40;;;23.50;99.90;;;;;;4989330;28;20348;-50
2022/06/08 00:05:51;;;;;;;14.00;6.10;;;23.50;99.90;;;;;;4989967;28;20022;-48
2022/06/08 00:08:19;;;;;;;16.73;6.18;;;23.50;99.90;;;;;;4987148;28;20026;-49
2022/06/08 00:10:45;;;;;;;9.80;5.32;;;23.40;99.90;;;;;;4988705;28;20041;-48
2022/06/08 00:13:11;;;;;;;12.32;5.40;;;23.50;99.90;;;;;;4990177;28;20026;-48
2022/06/08 00:15:37;;;;;;;13.27;4.63;;;23.50;99.90;;;;;;4987276;28;20026;-48
2022/06/08 00:18:05;;;;;;;12.63;4.90;;;23.50;99.90;;;;;;4988380;28;20081;-47
2022/06/08 00:20:31;;;;;;;15.50;4.95;;;23.50;99.90;;;;;;4984092;28;20040;-46
2022/06/08 00:22:57;;;;;;;13.30;4.85;;;23.40;99.90;;;;;;4983283;28;20058;-47
2022/06/08 00:25:23;;;;;;;14.07;5.43;;;23.40;99.90;;;;;;4977655;28;20165;-47
2022/06/08 00:27:49;;;;;;;13.05;4.88;;;23.40;99.90;;;;;;4982892;28;20030;-46
2022/06/08 00:30:14;;;;;;;12.07;5.38;;;23.40;99.90;;;;;;4982101;28;20030;-47
2022/06/08 00:32:40;;;;;;;12.70;4.88;;;23.40;99.90;;;;;;4987788;28;20053;-48
2022/06/08 00:35:08;;;;;;;14.18;5.80;;;23.30;99.90;;;;;;4985897;28;20057;-48
2022/06/08 00:37:34;;;;;;;15.98;5.28;;;23.20;99.90;;;;;;4984048;28;20030;-47
2022/06/08 00:40:00;;;;;;;16.00;6.85;;;23.30;99.90;;;;;;4980491;28;20482;-46
2022/06/08 00:42:26;;;;;;;14.85;5.43;;;23.30;99.90;;;;;;4977271;28;20455;-46
2022/06/08 00:44:58;;;;;;;10.52;5.53;;;23.30;99.90;;;;;;4979776;28;20114;-46
2022/06/08 00:47:49;;;;;;;13.48;6.50;;;23.20;99.90;;;;;;4986586;28;20018;-46
2022/06/08 00:50:28;;;;;;;16.95;6.03;;;23.20;99.90;;;;;;4982774;28;20077;-46
2022/06/08 00:52:55;;;;;;;10.93;6.30;;;23.30;99.90;;;;;;4985535;28;20030;-46
2022/06/08 00:55:25;;;;;;;19.02;6.25;;;23.30;99.90;;;;;;4978276;28;20023;-46
2022/06/08 00:57:56;;;;;;;16.67;6.00;;;23.30;99.90;;;;;;4979311;28;20422;-46
2022/06/08 01:00:26;;;;;;;14.60;5.88;;;23.40;99.90;;;;;;4977529;28;20050;-47
2022/06/08 01:02:52;;;;;;;17.33;6.50;;;23.40;99.90;;;;;;4986320;28;20363;-47
2022/06/08 01:05:24;;;;;;;17.77;6.70;;;23.40;99.90;;;;;;4981126;28;20058;-45
2022/06/08 01:07:53;;;;;;;12.43;5.53;;;23.40;99.90;;;;;;4980099;28;20030;-46
2022/06/08 01:10:23;;;;;;;15.00;6.35;;;23.30;99.90;;;;;;4980080;28;20041;-47
2022/06/08 01:12:49;;;;;;;18.80;6.13;;;23.30;99.90;;;;;;4979056;28;20023;-47
2022/06/08 01:15:21;;;;;;;21.33;7.10;;;23.30;99.90;;;;;;4985183;28;20479;-48
2022/06/08 01:17:48;;;;;;;22.50;7.90;;;23.30;99.90;;;;;;4984600;28;20041;-47
2022/06/08 01:20:14;;;;;;;23.13;7.50;;;23.30;99.90;;;;;;4989186;28;20030;-47
2022/06/08 01:22:40;;;;;;;24.95;8.02;;;23.20;99.90;;;;;;4988827;28;20045;-47
2022/06/08 01:25:09;;;;;;;26.05;8.38;;;23.20;99.90;;;;;;4989356;28;20636;-46
2022/06/08 01:28:14;;;;;;;21.70;8.20;;;23.10;99.90;;;;;;4983183;28;20026;-48
2022/06/08 01:31:23;;;;;;;23.40;7.43;;;23.20;99.90;;;;;;4988003;28;20034;-48
2022/06/08 01:33:58;;;;;;;23.65;8.02;;;23.10;99.90;;;;;;4948889;28;20395;-47
2022/06/08 01:36:25;;;;;;;21.48;8.45;;;23.00;99.90;;;;;;4988367;28;20022;-48
2022/06/08 01:39:17;;;;;;;23.98;9.00;;;23.00;99.90;;;;;;4986363;28;20045;-47
2022/06/08 01:42:22;;;;;;;22.45;8.40;;;22.80;99.90;;;;;;4976877;28;20045;-45
2022/06/08 01:45:29;;;;;;;21.55;7.32;;;22.70;99.90;;;;;;4968572;28;20179;-50
2022/06/08 01:47:57;;;;;;;;;;;22.60;99.90;;;;;;4987921;28;20483;-50
2022/06/08 01:50:50;;;;;;;23.23;7.57;;;22.60;99.90;;;;;;4986141;28;20362;-50
2022/06/08 01:53:30;;;;;;;24.77;8.15;;;22.50;99.90;;;;;;4988419;28;20014;-47
2022/06/08 01:56:35;;;;;;;27.88;8.23;;;22.60;99.90;;;;;;4988177;28;20019;-47
2022/06/08 02:02:06;;;;;;;16.90;7.10;;;22.40;99.90;;;;;;4983889;28;20058;-47
2022/06/08 02:04:59;;;;;;;23.65;7.60;;;22.40;99.90;;;;;;4989005;28;20026;-48
2022/06/08 02:07:44;;;;;;;22.60;7.10;;;22.40;99.90;;;;;;4997427;28;20019;-46
2022/06/08 02:10:27;;;;;;;17.73;6.95;;;22.50;99.90;;;;;;4988379;28;20503;-49
2022/06/08 02:13:01;;;;;;;24.70;7.65;;;22.50;99.90;;;;;;4985360;28;20038;-48
2022/06/08 02:15:52;;;;;;;12.40;6.28;;;22.80;99.90;;;;;;4982245;28;20046;-49
2022/06/08 02:18:47;;;;;;;22.77;7.05;;;22.90;99.90;;;;;;4975490;28;20383;-49
2022/06/08 02:21:18;;;;;;;15.40;6.15;;;23.10;99.90;;;;;;4981878;28;20038;-50
2022/06/08 02:23:54;;;;;;;18.48;6.70;;;23.20;99.90;;;;;;4991954;28;20030;-51
2022/06/08 02:26:43;;;;;;;19.33;6.95;;;23.20;99.90;;;;;;4984541;28;20073;-49
2022/06/08 02:29:11;;;;;;;24.17;8.35;;;23.10;99.90;;;;;;4976109;28;20106;-49
2022/06/08 02:32:02;;;;;;;15.50;7.03;;;23.10;99.90;;;;;;4993858;28;20022;-50
2022/06/08 02:34:36;;;;;;;14.95;8.70;;;23.00;99.90;;;;;;4993960;28;20105;-50
2022/06/08 02:37:19;;;;;;;17.13;8.15;;;22.90;99.90;;;;;;4994342;28;20038;-50
2022/06/08 02:39:53;;;;;;;16.73;8.63;;;23.00;99.90;;;;;;4993886;28;20054;-50
2022/06/08 02:42:30;;;;;;;20.70;9.18;;;23.10;99.90;;;;;;4994128;28;20441;-49
2022/06/08 02:45:01;;;;;;;24.45;9.02;;;23.10;99.90;;;;;;4980192;28;20026;-49
2022/06/08 02:47:33;;;;;;;19.25;9.95;;;23.20;99.90;;;;;;4994012;28;20065;-49
2022/06/08 02:50:00;;;;;;;16.40;8.80;;;23.10;99.90;;;;;;4993864;28;20042;-49
2022/06/08 02:52:29;;;;;;;16.67;8.48;;;23.10;99.90;;;;;;4993959;28;20097;-49
2022/06/08 02:54:56;;;;;;;21.23;9.85;;;23.10;99.90;;;;;;4993777;28;20084;-49
2022/06/08 02:57:30;;;;;;;18.17;9.38;;;23.10;99.90;;;;;;4993979;28;20022;-49
2022/06/08 03:00:11;;;;;;;18.33;9.10;;;23.10;99.90;;;;;;5001377;23;20054;-48
2022/06/08 03:02:45;;;;;;;23.73;9.98;;;23.10;99.90;;;;;;4974440;28;20085;-49
2022/06/08 03:05:20;;;;;;;16.80;9.70;;;23.00;99.90;;;;;;4970575;28;20022;-49
2022/06/08 03:08:06;;;;;;;23.92;10.60;;;23.00;99.90;;;;;;4954914;28;20020;-49
2022/06/08 03:10:35;;;;;;;18.60;11.05;;;23.10;99.90;;;;;;4960847;28;20045;-50
2022/06/08 03:13:14;;;;;;;15.02;10.57;;;23.00;99.90;;;;;;4986400;28;20030;-50
2022/06/08 03:15:42;;;;;;;18.98;9.90;;;23.10;99.90;;;;;;4967282;28;20015;-50
2022/06/08 03:18:08;;;;;;;20.13;11.50;;;23.10;99.90;;;;;;4981619;28;20019;-50
2022/06/08 03:20:35;;;;;;;21.90;10.55;;;23.00;99.90;;;;;;4978320;28;20109;-48
2022/06/08 03:23:01;;;;;;;20.23;11.35;;;22.90;99.90;;;;;;4972355;28;20518;-48
2022/06/08 03:25:27;;;;;;;20.70;10.57;;;22.90;99.90;;;;;;4954642;28;20084;-48
2022/06/08 03:27:53;;;;;;;16.65;10.20;;;22.80;99.90;;;;;;4959155;28;20105;-49
2022/06/08 03:30:20;;;;;;;19.23;10.98;;;22.70;99.90;;;;;;4973842;28;20033;-49
2022/06/08 03:32:46;;;;;;;17.92;11.02;;;22.80;99.90;;;;;;4972751;28;20031;-49
2022/06/08 03:35:12;;;;;;;19.50;10.02;;;22.80;99.90;;;;;;4974085;28;20027;-50
2022/06/08 03:37:38;;;;;;;22.85;12.13;;;22.70;99.90;;;;;;4973611;28;20039;-50
2022/06/08 03:40:05;;;;;;;22.42;12.25;;;22.50;99.90;;;;;;4980534;28;20102;-49
2022/06/08 03:42:31;;;;;;;16.70;11.10;;;22.60;99.90;;;;;;4980109;28;20530;-48
2022/06/08 03:44:56;;;;;;;14.02;9.27;;;22.50;99.90;;;;;;4987045;28;20039;-48
2022/06/08 03:47:26;;;;;;;14.70;9.48;;;22.50;99.90;;;;;;4984585;28;20077;-48
2022/06/08 03:49:55;;;;;;;16.85;11.07;;;22.60;99.90;;;;;;4961705;28;20027;-48
2022/06/08 03:52:25;;;;;;;13.32;9.77;;;22.60;99.90;;;;;;4973444;28;20023;-48
2022/06/08 03:54:57;;;;;;;14.82;10.38;;;22.70;99.90;;;;;;4956724;28;20492;-48
2022/06/08 03:57:23;;;;;;;21.42;11.07;;;22.70;99.90;;;;;;4963491;28;20441;-48
2022/06/08 03:59:49;;;;;;;23.58;11.93;;;22.60;99.90;;;;;;4958123;28;20043;-48
2022/06/08 04:02:16;;;;;;;19.10;10.10;;;22.60;99.90;;;;;;4954107;28;20110;-46
2022/06/08 04:04:42;;;;;;;16.57;8.70;;;22.60;99.90;;;;;;4967723;28;20023;-47
2022/06/08 04:07:10;;;;;;;26.77;11.18;;;22.60;99.90;;;;;;4959671;28;20027;-46
2022/06/08 04:09:36;;;;;;;18.27;10.65;;;22.60;99.90;;;;;;4961148;28;20028;-47
2022/06/08 04:12:03;;;;;;;18.23;10.65;;;22.50;99.90;;;;;;4967332;28;20027;-48
2022/06/08 04:14:29;;;;;;;19.80;10.80;;;22.50;99.90;;;;;;4978580;28;20031;-48
2022/06/08 04:16:55;;;;;;;23.67;11.57;;;22.40;99.90;;;;;;4984021;28;20479;-48
2022/06/08 04:19:21;;;;;;;16.63;8.18;;;22.40;99.90;;;;;;4970224;28;20053;-48
2022/06/08 04:21:47;;;;;;;16.42;10.57;;;22.40;99.90;;;;;;4991170;28;20065;-48
2022/06/08 04:24:16;;;;;;;20.95;9.82;;;22.40;99.90;;;;;;4960185;28;20019;-48
2022/06/08 04:26:42;;;;;;;20.08;11.55;;;22.50;99.90;;;;;;4960022;28;20510;-48
2022/06/08 04:29:09;;;;;;;19.38;7.13;;;22.50;99.90;;;;;;4967010;28;20062;-48
2022/06/08 04:31:35;;;;;;;16.67;5.00;;;22.60;99.90;;;;;;4967427;28;20046;-48
2022/06/08 04:34:04;;;;;;;7.07;3.30;;;22.80;99.90;;;;;;4978994;28;20025;-47
2022/06/08 04:36:31;;;;;;;13.23;3.35;;;23.10;99.90;;;;;;4977972;28;20085;-47
2022/06/08 04:38:58;;;;;;;8.80;2.80;;;23.40;99.90;;;;;;4991930;28;20471;-48
2022/06/08 04:41:26;;;;;;;6.28;2.33;;;23.60;99.90;;;;;;4974348;28;20379;-48
2022/06/08 04:43:52;;;;;;;;;;;23.90;99.90;;;;;;4972631;28;20018;-48
2022/06/08 04:46:18;;;;;;;10.75;3.15;;;24.10;99.90;;;;;;4987341;28;19905;-48
2022/06/08 04:48:45;;;;;;;5.35;2.22;;;24.30;99.90;;;;;;4983639;28;20093;-48
2022/06/08 04:51:11;;;;;;;;;;;24.40;99.90;;;;;;4972548;28;20489;-48
2022/06/08 04:53:43;;;;;;;7.57;2.05;;;24.60;99.90;;;;;;4978870;28;19997;-48
2022/06/08 04:56:09;;;;;;;8.68;2.55;;;24.70;99.90;;;;;;4991751;28;20027;-48
2022/06/08 04:58:35;;;;;;;9.80;2.65;;;24.80;99.90;;;;;;4972506;28;20022;-49
2022/06/08 05:01:03;;;;;;;5.93;1.80;;;24.80;99.90;;;;;;4960939;28;20504;-48
2022/06/08 05:03:30;;;;;;;;;;;24.90;99.90;;;;;;4970372;28;20442;-49
2022/06/08 05:05:57;;;;;;;7.30;1.83;;;25.00;99.90;;;;;;4972343;28;19989;-49
2022/06/08 05:08:23;;;;;;;6.32;2.22;;;25.10;99.90;;;;;;4972146;28;20067;-48
2022/06/08 05:10:50;;;;;;;9.32;2.08;;;25.10;99.90;;;;;;4972308;28;20061;-48
2022/06/08 05:13:18;;;;;;;13.73;2.60;;;25.20;99.90;;;;;;4972789;28;20026;-50
2022/06/08 05:15:44;;;;;;;;;;;25.30;99.90;;;;;;4985385;28;20525;-47
2022/06/08 05:18:12;;;;;;;9.25;1.80;;;25.30;99.90;;;;;;4959697;28;19906;-48
2022/06/08 05:20:40;;;;;;;8.27;2.70;;;25.40;99.90;;;;;;4970995;28;20487;-47
2022/06/08 05:23:09;;;;;;;6.75;1.92;;;25.40;99.90;;;;;;4960963;28;20699;-48
2022/06/08 05:25:38;;;;;;;6.35;1.80;;;25.40;99.90;;;;;;4965912;28;20103;-50
2022/06/08 05:28:06;;;;;;;5.38;1.90;;;25.40;99.90;;;;;;4964952;28;20026;-48
2022/06/08 05:30:32;;;;;;;;;;;25.50;99.90;;;;;;4979507;28;20058;-48
2022/06/08 05:32:58;;;;;;;9.90;1.70;;;25.60;99.90;;;;;;4967188;28;19907;-48
2022/06/08 05:35:25;;;;;;;7.18;1.67;;;25.60;99.90;;;;;;4963135;28;20162;-48
2022/06/08 05:37:51;;;;;;;3.28;1.58;;;25.60;99.90;;;;;;4985454;28;20030;-48
2022/06/08 05:40:17;;;;;;;9.05;2.10;;;25.70;99.90;;;;;;4980527;28;20026;-48
2022/06/08 05:42:43;;;;;;;13.32;2.67;;;25.70;99.90;;;;;;4989270;28;20141;-47
2022/06/08 05:45:15;;;;;;;6.82;2.10;;;25.60;99.90;;;;;;4959267;28;20415;-49
2022/06/08 05:47:41;;;;;;;14.48;3.53;;;25.60;99.90;;;;;;4971828;28;20035;-49
2022/06/08 05:50:07;;;;;;;11.82;3.20;;;25.60;99.90;;;;;;4977280;28;20765;-47
2022/06/08 05:52:33;;;;;;;11.75;2.85;;;25.60;99.90;;;;;;4991182;28;20500;-48
2022/06/08 05:54:59;;;;;;;9.93;2.33;;;25.60;99.90;;;;;;4973590;28;20101;-48
2022/06/08 05:57:24;;;;;;;6.93;2.28;;;25.60;99.90;;;;;;4994422;28;20478;-48
2022/06/08 05:59:50;;;;;;;9.48;2.17;;;25.60;99.90;;;;;;4963659;28;20058;-50
2022/06/08 06:02:16;;;;;;;7.43;2.00;;;25.60;99.90;;;;;;4956061;28;20117;-50
2022/06/08 06:04:43;;;;;;;10.13;2.20;;;25.70;99.90;;;;;;4983110;28;20031;-46
2022/06/08 06:07:11;;;;;;;11.65;4.68;;;25.70;99.90;;;;;;4955948;28;20030;-48
2022/06/08 06:09:38;;;;;;;10.20;3.60;;;25.60;99.90;;;;;;4968209;28;20030;-48
2022/06/08 06:12:05;;;;;;;8.70;3.30;;;25.30;99.90;;;;;;4975043;28;20015;-49
2022/06/08 06:14:32;;;;;;;13.40;5.67;;;25.00;99.90;;;;;;4973962;28;20435;-48
2022/06/08 06:16:58;;;;;;;19.57;5.97;;;24.80;99.90;;;;;;4972391;28;20375;-51
2022/06/08 06:19:24;;;;;;;15.93;6.57;;;24.60;99.90;;;;;;4970819;28;20269;-49
2022/06/08 06:21:49;;;;;;;12.45;5.38;;;24.40;99.90;;;;;;4970538;28;20122;-49
2022/06/08 06:24:16;;;;;;;18.40;7.40;;;24.30;99.90;;;;;;4980763;28;20016;-49
2022/06/08 06:26:41;;;;;;;14.40;7.05;;;24.10;99.90;;;;;;4955970;28;20031;-46
2022/06/08 06:29:07;;;;;;;14.60;5.63;;;24.00;99.90;;;;;;4966242;28;20038;-49
2022/06/08 06:31:45;;;;;;;15.40;6.85;;;23.90;99.90;;;;;;4981636;28;20132;-49
2022/06/08 06:34:13;;;;;;;14.80;6.13;;;23.80;99.90;;;;;;4980118;28;20065;-49
2022/06/08 06:36:39;;;;;;;12.73;5.53;;;23.90;99.90;;;;;;4968084;28;20027;-49
2022/06/08 06:39:05;;;;;;;12.38;5.25;;;23.90;99.90;;;;;;4967973;28;20030;-49
2022/06/08 06:41:31;;;;;;;16.75;6.35;;;23.90;99.90;;;;;;4979317;28;20089;-49
2022/06/08 06:43:57;;;;;;;16.50;5.72;;;23.90;99.90;;;;;;4994244;28;20360;-49
2022/06/08 06:46:23;;;;;;;12.23;5.27;;;23.90;99.90;;;;;;4980395;28;20022;-49
2022/06/08 06:48:49;;;;;;;15.48;5.03;;;23.90;99.90;;;;;;4976143;28;20027;-49
2022/06/08 06:51:15;;;;;;;11.43;4.68;;;23.90;99.90;;;;;;4969547;28;21011;-49
2022/06/08 06:53:41;;;;;;;11.77;4.22;;;24.00;99.90;;;;;;4979933;28;20019;-49
2022/06/08 06:56:08;;;;;;;7.85;4.05;;;24.00;99.90;;;;;;4980912;28;20026;-49
2022/06/08 06:58:35;;;;;;;16.65;4.32;;;24.10;99.90;;;;;;4974734;28;20466;-49
2022/06/08 07:01:01;;;;;;;14.93;4.27;;;24.20;99.90;;;;;;4985426;28;20410;-49
2022/06/08 07:03:27;;;;;;;9.20;4.05;;;24.30;99.90;;;;;;4990282;28;20054;-49
2022/06/08 07:05:53;;;;;;;10.57;5.43;;;24.40;99.90;;;;;;4974399;28;20030;-49
2022/06/08 07:08:19;;;;;;;12.95;3.28;;;24.50;99.90;;;;;;4989298;28;20031;-49
2022/06/08 07:11:32;;;;;;;15.10;4.30;;;24.50;99.90;;;;;;4986290;28;20027;-49
2022/06/08 07:13:30;;;;;;;9.73;3.50;;;24.60;99.90;;;;;;4987509;28;20438;-49
2022/06/08 07:15:56;;;;;;;17.70;4.28;;;24.60;99.90;;;;;;4982495;28;20081;-49
2022/06/08 07:18:22;;;;;;;21.52;9.43;;;24.70;99.90;;;;;;4993429;28;20031;-49
2022/06/08 07:20:48;;;;;;;13.13;4.20;;;24.70;99.90;;;;;;4986965;28;20035;-49
2022/06/08 07:23:14;;;;;;;12.07;3.28;;;24.80;99.90;;;;;;4974037;28;20486;-49
2022/06/08 07:25:39;;;;;;;8.85;4.13;;;24.90;99.90;;;;;;4982886;28;20094;-49
2022/06/08 07:28:06;;;;;;;8.52;2.90;;;25.00;99.90;;;;;;4954581;28;20023;-49
2022/06/08 07:30:32;;;;;;;8.52;2.85;;;25.10;99.90;;;;;;4954467;28;20038;-49
2022/06/08 07:32:57;;;;;;;11.32;3.47;;;25.10;99.90;;;;;;4972318;28;20023;-48
2022/06/08 07:35:23;;;;;;;6.72;3.72;;;25.20;99.90;;;;;;4983991;28;20039;-48
2022/06/08 07:37:49;;;;;;;9.75;3.75;;;25.40;99.90;;;;;;4976898;28;20019;-49
2022/06/08 07:40:15;;;;;;;7.70;2.80;;;25.50;99.90;;;;;;4972117;28;20439;-48
2022/06/08 07:42:41;;;;;;;5.53;2.60;;;25.60;99.90;;;;;;4987053;28;20034;-49
2022/06/08 07:45:09;;;;;;;9.57;2.85;;;25.70;99.90;;;;;;4979911;28;20026;-48
2022/06/08 07:49:36;;;;;;;6.93;3.25;;;25.80;99.90;;;;;;4992944;28;20023;-49
2022/06/08 07:50:21;;;;;;;8.40;4.55;;;25.80;99.90;;;;;;4953995;28;20223;-49
2022/06/08 07:52:47;;;;;;;9.23;3.42;;;25.90;99.90;;;;;;4954381;28;20412;-49
2022/06/08 07:55:13;;;;;;;6.80;2.80;;;25.90;99.90;;;;;;4972988;28;20015;-49
2022/06/08 07:57:38;;;;;;;10.18;3.28;;;26.00;99.90;;;;;;4973358;28;20114;-48
2022/06/08 08:00:06;;;;;;;10.85;3.10;;;26.10;99.90;;;;;;4982726;28;20178;-48
2022/06/08 08:02:33;;;;;;;8.35;2.53;;;26.10;99.90;;;;;;4973784;28;20413;-48
2022/06/08 08:04:59;;;;;;;7.35;2.20;;;26.20;99.90;;;;;;4990289;28;20031;-48
2022/06/08 08:07:26;;;;;;;7.60;2.80;;;26.30;99.90;;;;;;4973276;28;20431;-49
2022/06/08 08:09:51;;;;;;;13.43;5.30;;;26.20;99.90;;;;;;4972447;28;20122;-48
2022/06/08 08:12:17;;;;;;;13.40;2.50;;;26.40;99.90;;;;;;4965966;28;20541;-48
2022/06/08 08:14:43;;;;;;;10.45;2.80;;;26.40;99.90;;;;;;4980420;28;20033;-48
2022/06/08 08:17:09;;;;;;;5.90;2.97;;;26.60;99.90;;;;;;4975884;28;20042;-48
2022/06/08 08:19:38;;;;;;;6.50;3.17;;;26.60;99.90;;;;;;4991836;28;20085;-48
2022/06/08 08:22:04;;;;;;;7.93;3.40;;;26.60;99.90;;;;;;4974393;28;20041;-48
2022/06/08 08:24:31;;;;;;;6.70;3.30;;;26.60;99.90;;;;;;4964322;28;20427;-45
2022/06/08 08:26:57;;;;;;;10.80;3.58;;;26.50;99.90;;;;;;4954901;28;20031;-45
2022/06/08 08:29:23;;;;;;;7.03;2.10;;;26.60;99.90;;;;;;4958176;28;20051;-48
2022/06/08 08:31:50;;;;;;;13.00;3.42;;;26.60;99.90;;;;;;4956025;28;20041;-49
2022/06/08 08:34:16;;;;;;;12.90;3.47;;;26.70;99.90;;;;;;4956385;28;20379;-48
2022/06/08 08:36:42;;;;;;;7.32;2.80;;;26.60;99.90;;;;;;4966471;28;20030;-49
2022/06/08 08:39:08;;;;;;;10.65;3.58;;;26.70;99.90;;;;;;4971982;28;20023;-49
2022/06/08 08:44:41;;;;;;;10.20;3.05;;;26.80;99.90;;;;;;4973304;28;20037;-49
2022/06/08 08:47:23;;;;;;;8.25;4.20;;;26.80;99.90;;;;;;4967612;28;20109;-49
2022/06/08 08:50:10;;;;;;;10.73;4.63;;;27.10;99.90;;;;;;4967314;28;20030;-48
2022/06/08 08:53:01;;;;;;;11.80;3.58;;;27.30;99.90;;;;;;4954593;28;20020;-49
2022/06/08 08:55:37;;;;;;;9.07;3.47;;;27.40;99.90;;;;;;4953917;28;20090;-48
2022/06/08 08:58:22;;;;;;;7.78;4.07;;;27.40;99.90;;;;;;4968486;28;20050;-48
2022/06/08 09:00:55;;;;;;;7.80;3.17;;;27.40;99.90;;;;;;4952857;28;20039;-49
2022/06/08 09:03:42;;;;;;;6.30;3.45;;;27.30;99.90;;;;;;4955175;28;20029;-48
2022/06/08 09:06:14;;;;;;;8.93;3.25;;;27.20;99.90;;;;;;4956041;28;20030;-48
2022/06/08 09:08:45;;;;;;;15.13;4.60;;;27.20;99.90;;;;;;4957814;28;20361;-47
2022/06/08 09:11:29;;;;;;;7.50;3.95;;;27.20;99.90;;;;;;4954260;28;20023;-48
2022/06/08 09:14:06;;;;;;;11.45;4.30;;;27.10;99.90;;;;;;4955375;28;20518;-47
2022/06/08 09:16:37;;;;;;;7.22;2.70;;;27.00;99.90;;;;;;4953780;28;20413;-48
2022/06/08 09:19:30;;;;;;;10.00;3.40;;;26.80;99.90;;;;;;4958207;28;20078;-48
2022/06/08 09:22:08;;;;;;;12.50;3.50;;;26.80;99.90;;;;;;4958467;28;20075;-50
2022/06/08 09:24:45;;;;;;;15.32;5.65;;;26.70;99.90;;;;;;4963379;28;20495;-50
2022/06/08 09:27:38;;;;;;;5.13;2.55;;;26.70;99.90;;;;;;4952823;28;20035;-50
2022/06/08 09:30:24;;;;;;;11.18;2.72;;;26.60;99.90;;;;;;4961229;28;20035;-51
2022/06/08 09:33:14;;;;;;;7.50;2.72;;;26.60;99.90;;;;;;4988031;28;20027;-52
2022/06/08 09:35:58;;;;;;;5.35;2.10;;;26.60;99.90;;;;;;4975823;28;20027;-50
2022/06/08 09:38:26;;;;;;;11.35;4.85;;;26.80;99.90;;;;;;4979515;28;20071;-51
2022/06/08 09:41:13;;;;;;;8.88;3.75;;;26.80;99.90;;;;;;4975100;28;20078;-48
2022/06/08 09:43:51;;;;;;;9.45;2.67;;;26.90;99.90;;;;;;4969685;28;20480;-47
2022/06/08 09:51:25;;;;;;;5.95;3.05;;;26.90;99.90;;;;;;4958053;28;20106;-49
2022/06/08 09:52:35;;;;;;;8.13;3.22;;;27.10;99.90;;;;;;4958555;28;20038;-44
2022/06/08 09:55:24;;;;;;;17.88;8.82;;;27.20;99.90;;;;;;4969142;28;20107;-46
2022/06/08 09:58:09;;;;;;;17.27;8.75;;;27.20;99.90;;;;;;4983432;28;20018;-48
2022/06/08 10:01:05;;;;;;;14.57;6.07;;;27.10;99.90;;;;;;4958063;28;20044;-48
2022/06/08 10:03:46;;;;;;;12.30;6.00;;;27.10;99.90;;;;;;4964129;28;20410;-50
2022/06/08 10:06:24;;;;;;;11.73;3.17;;;27.10;99.90;;;;;;4958437;28;20089;-51
2022/06/08 10:09:15;;;;;;;;;;;27.10;99.90;;;;;;4957723;28;20035;-49
2022/06/08 10:11:48;;;;;;;9.95;3.60;;;27.10;99.90;;;;;;4956743;28;19949;-54
2022/06/08 10:14:42;;;;;;;12.07;4.13;;;27.10;99.90;;;;;;4957691;28;20464;-46
2022/06/08 10:17:38;;;;;;;16.23;5.70;;;27.00;99.90;;;;;;4962497;28;20033;-48
2022/06/08 10:20:19;;;;;;;11.95;4.95;;;26.90;99.90;;;;;;4974810;28;20113;-47
2022/06/08 10:22:56;;;;;;;10.50;4.13;;;26.80;99.90;;;;;;4974082;28;20602;-47
2022/06/08 10:25:42;;;;;;;18.25;6.43;;;26.70;99.90;;;;;;4972097;28;20022;-47
2022/06/08 10:28:15;;;;;;;13.00;4.83;;;26.60;99.90;;;;;;4969755;28;20101;-47
2022/06/08 10:30:47;;;;;;;15.13;4.20;;;26.60;99.90;;;;;;4979758;28;20042;-47
2022/06/08 10:33:21;;;;;;;17.00;4.22;;;26.70;99.90;;;;;;4965826;28;20023;-47
2022/06/08 10:35:52;;;;;;;14.57;5.05;;;26.70;99.90;;;;;;4986418;28;20053;-47
2022/06/08 10:38:32;;;;;;;17.27;4.10;;;26.90;99.90;;;;;;4980641;28;20031;-50
2022/06/08 10:44:25;;;;;;;15.07;3.97;;;27.10;99.90;;;;;;4970174;28;20072;-49
2022/06/08 10:46:51;;;;;;;6.88;3.00;;;27.20;99.90;;;;;;4980374;28;20023;-48
2022/06/08 10:49:37;;;;;;;10.93;3.05;;;27.30;99.90;;;;;;4961993;28;20055;-48
2022/06/08 10:52:20;;;;;;;12.10;3.38;;;27.40;99.90;;;;;;4963674;28;20142;-49
2022/06/08 10:54:53;;;;;;;15.77;7.03;;;27.50;99.90;;;;;;4974217;28;20026;-48
2022/06/08 10:57:35;;;;;;;9.77;4.22;;;27.60;99.90;;;;;;4971872;28;20086;-49
2022/06/08 11:00:19;;;;;;;11.18;3.45;;;27.70;99.90;;;;;;4971412;28;20510;-48
2022/06/08 11:03:01;;;;;;;13.45;3.10;;;27.80;99.90;;;;;;4967742;28;20045;-48
2022/06/08 11:05:43;;;;;;;12.82;4.70;;;27.90;99.90;;;;;;4967474;28;20062;-48
2022/06/08 11:08:12;;;;;;;11.57;3.80;;;28.10;99.90;;;;;;4982672;28;20057;-48
2022/06/08 11:10:48;;;;;;;13.02;4.78;;;28.20;99.90;;;;;;4980857;28;20403;-47
2022/06/08 11:13:23;;;;;;;8.52;3.97;;;28.20;99.90;;;;;;4967374;28;20720;-48
2022/06/08 11:16:20;;;;;;;11.27;4.03;;;28.20;99.90;;;;;;4980314;28;20027;-46
2022/06/08 11:19:16;;;;;;;10.02;3.72;;;28.20;99.90;;;;;;4968711;28;20126;-49
2022/06/08 11:21:57;;;;;;;15.80;5.38;;;28.20;99.90;;;;;;4962580;28;20352;-50
2022/06/08 11:24:39;;;;;;;14.30;3.85;;;28.30;99.90;;;;;;4967948;28;20143;-48
2022/06/08 11:27:11;;;;;;;11.23;4.65;;;28.40;99.90;;;;;;4954492;28;20027;-49
2022/06/08 11:29:52;;;;;;;20.33;6.20;;;28.40;99.90;;;;;;4959146;28;20050;-52
2022/06/08 11:32:33;;;;;;;19.30;4.18;;;28.50;99.90;;;;;;4961153;28;20019;-47
2022/06/08 11:35:26;;;;;;;16.77;7.38;;;28.40;99.90;;;;;;4961106;28;20089;-48
2022/06/08 11:38:21;;;;;;;16.10;5.25;;;28.30;99.90;;;;;;4959979;28;20019;-49
2022/06/08 11:40:47;;;;;;;25.80;4.22;;;28.20;99.90;;;;;;4986239;28;20491;-47
2022/06/08 11:43:13;;;;;;;19.88;7.57;;;28.20;99.90;;;;;;4961398;28;20155;-50
2022/06/08 11:45:44;;;;;;;21.38;4.38;;;28.30;99.90;;;;;;4970298;28;20026;-48
2022/06/08 11:48:14;;;;;;;22.38;4.30;;;28.30;99.90;;;;;;4973172;28;20027;-47
2022/06/08 11:50:52;;;;;;;16.73;5.13;;;28.40;99.90;;;;;;4973525;28;20031;-48
2022/06/08 11:53:30;;;;;;;20.83;5.13;;;28.30;99.90;;;;;;4972508;28;20043;-48
2022/06/08 11:56:29;;;;;;;16.10;4.03;;;28.30;99.90;;;;;;4975349;28;20385;-47
2022/06/08 11:58:58;;;;;;;21.90;8.35;;;28.20;99.90;;;;;;4968286;28;20035;-49
2022/06/08 12:01:43;;;;;;;14.75;4.72;;;28.30;99.90;;;;;;4971662;28;20043;-49
2022/06/08 12:04:15;;;;;;;19.05;3.70;;;28.30;99.90;;;;;;4969026;28;20482;-49
2022/06/08 12:06:43;;;;;;;16.30;5.03;;;28.20;99.90;;;;;;4970189;28;20472;-50
2022/06/08 12:09:26;;;;;;;18.95;5.60;;;28.20;99.90;;;;;;4979831;28;20077;-49
2022/06/08 12:12:11;;;;;;;22.23;4.57;;;28.30;99.90;;;;;;4990492;28;20499;-49
2022/06/08 12:14:39;;;;;;;27.63;9.57;;;28.40;99.90;;;;;;4991507;28;20101;-47
2022/06/08 12:17:17;;;;;;;25.38;5.75;;;28.50;99.90;;;;;;4961784;28;20324;-48
2022/06/08 12:19:44;;;;;;;14.77;4.13;;;28.60;99.90;;;;;;4971908;28;20053;-47
2022/06/08 12:22:22;;;;;;;;;;;28.70;99.90;;;;;;4982358;28;20034;-47
2022/06/08 12:25:07;;;;;;;17.00;4.13;;;28.80;99.90;;;;;;4958201;28;20319;-48
2022/06/08 12:27:56;;;;;;;17.88;3.10;;;28.90;99.90;;;;;;4971676;28;20468;-48
2022/06/08 12:30:53;;;;;;;12.82;3.53;;;28.90;99.90;;;;;;4992109;28;20046;-48
2022/06/08 12:33:19;;;;;;;14.35;5.50;;;29.00;99.90;;;;;;4966496;28;20471;-48
2022/06/08 12:36:10;;;;;;;18.42;6.30;;;29.10;99.90;;;;;;4977674;28;20106;-46
2022/06/08 12:38:38;;;;;;;19.70;7.95;;;29.20;99.90;;;;;;4966685;28;20463;-46
2022/06/08 12:41:15;;;;;;;15.88;6.53;;;29.30;99.90;;;;;;4978230;28;20030;-46
2022/06/08 12:43:41;;;;;;;24.33;4.95;;;29.50;99.90;;;;;;4976977;28;20027;-48
2022/06/08 12:46:13;;;;;;;8.73;4.10;;;29.50;99.90;;;;;;4959941;28;20029;-50
2022/06/08 12:48:38;;;;;;;12.90;3.35;;;29.50;99.90;;;;;;4977771;28;20034;-49
2022/06/08 12:51:32;;;;;;;13.20;3.25;;;29.50;99.90;;;;;;4989494;28;20045;-47
2022/06/08 12:54:01;;;;;;;19.02;4.68;;;29.60;99.90;;;;;;4958280;28;20031;-48
2022/06/08 12:56:28;;;;;;;13.15;3.95;;;29.60;99.90;;;;;;4969884;28;20019;-48
2022/06/08 12:58:55;;;;;;;9.63;3.57;;;29.60;99.90;;;;;;4971635;28;20019;-47
2022/06/08 13:01:23;;;;;;;10.70;3.67;;;29.70;99.90;;;;;;4968122;28;20043;-48
2022/06/08 13:03:50;;;;;;;12.80;3.40;;;29.80;99.90;;;;;;4968854;28;20379;-50
2022/06/08 13:06:16;;;;;;;13.27;2.95;;;29.90;99.90;;;;;;4969860;28;20550;-49
2022/06/08 13:08:42;;;;;;;12.10;3.45;;;30.10;99.90;;;;;;4970100;28;20041;-49
2022/06/08 13:11:16;;;;;;;8.05;2.22;;;30.20;99.90;;;;;;4970876;28;20091;-49
2022/06/08 13:13:43;;;;;;;14.52;3.88;;;30.20;99.90;;;;;;4970220;28;20039;-48
2022/06/08 13:16:16;;;;;;;10.07;2.47;;;30.30;99.90;;;;;;4970901;28;20114;-50
2022/06/08 13:18:42;;;;;;;8.88;2.72;;;30.30;99.90;;;;;;4969468;28;20027;-47
2022/06/08 13:21:11;;;;;;;12.98;2.55;;;30.20;99.90;;;;;;4972774;28;20419;-47